sensor_id;sensor_type;location;lat;lon;timestamp;pressure;altitude;pressure_sealevel;temperature
67509;BMP280;54354;44.724;11.284;2023-02-13T00:01:08;103684.94;;;12.50
67509;BMP280;54354;44.724;11.284;2023-02-13T00:03:33;103685.97;;;12.45
67509;BMP280;54354;44.724;11.284;2023-02-13T00:05:59;103690.88;;;12.43
67509;BMP280;54354;44.724;11.284;2023-02-13T00:08:24;103688.97;;;12.43
67509;BMP280;54354;44.724;11.284;2023-02-13T00:10:50;103681.00;;;12.43
67509;BMP280;54354;44.724;11.284;2023-02-13T00:13:15;103680.56;;;12.41
67509;BMP280;54354;44.724;11.284;2023-02-13T00:15:41;103686.94;;;12.37
67509;BMP280;54354;44.724;11.284;2023-02-13T00:18:06;103684.16;;;12.33
67509;BMP280;54354;44.724;11.284;2023-02-13T00:20:32;103682.19;;;12.30
67509;BMP280;54354;44.724;11.284;2023-02-13T00:22:58;103678.34;;;12.28
67509;BMP280;54354;44.724;11.284;2023-02-13T00:25:24;103677.91;;;12.26
67509;BMP280;54354;44.724;11.284;2023-02-13T00:27:50;103664.25;;;12.27
67509;BMP280;54354;44.724;11.284;2023-02-13T00:30:16;103669.25;;;12.29
67509;BMP280;54354;44.724;11.284;2023-02-13T00:32:41;103671.91;;;12.29
67509;BMP280;54354;44.724;11.284;2023-02-13T00:35:07;103685.19;;;12.29
67509;BMP280;54354;44.724;11.284;2023-02-13T00:37:33;103677.91;;;12.26
67509;BMP280;54354;44.724;11.284;2023-02-13T00:39:58;103685.13;;;12.25
67509;BMP280;54354;44.724;11.284;2023-02-13T00:42:24;103689.63;;;12.25
67509;BMP280;54354;44.724;11.284;2023-02-13T00:44:52;103680.47;;;12.22
67509;BMP280;54354;44.724;11.284;2023-02-13T00:47:18;103677.03;;;12.21
67509;BMP280;54354;44.724;11.284;2023-02-13T00:49:44;103685.34;;;12.20
67509;BMP280;54354;44.724;11.284;2023-02-13T00:52:09;103692.56;;;12.19
67509;BMP280;54354;44.724;11.284;2023-02-13T00:54:35;103690.31;;;12.21
67509;BMP280;54354;44.724;11.284;2023-02-13T00:57:01;103684.22;;;12.21
67509;BMP280;54354;44.724;11.284;2023-02-13T00:59:26;103683.03;;;12.18
67509;BMP280;54354;44.724;11.284;2023-02-13T01:01:52;103692.19;;;12.21
67509;BMP280;54354;44.724;11.284;2023-02-13T01:04:17;103688.78;;;12.20
67509;BMP280;54354;44.724;11.284;2023-02-13T01:06:43;103691.81;;;12.19
67509;BMP280;54354;44.724;11.284;2023-02-13T01:09:08;103705.50;;;12.21
67509;BMP280;54354;44.724;11.284;2023-02-13T01:11:35;103697.19;;;12.23
67509;BMP280;54354;44.724;11.284;2023-02-13T01:14:02;103690.75;;;12.24
67509;BMP280;54354;44.724;11.284;2023-02-13T01:16:28;103688.44;;;12.22
67509;BMP280;54354;44.724;11.284;2023-02-13T01:18:54;103692.13;;;12.17
67509;BMP280;54354;44.724;11.284;2023-02-13T01:21:21;103687.41;;;12.11
67509;BMP280;54354;44.724;11.284;2023-02-13T01:23:52;103700.69;;;12.11
67509;BMP280;54354;44.724;11.284;2023-02-13T01:26:21;103692.63;;;12.07
67509;BMP280;54354;44.724;11.284;2023-02-13T01:28:51;103690.28;;;12.06
67509;BMP280;54354;44.724;11.284;2023-02-13T01:31:17;103697.88;;;11.91
67509;BMP280;54354;44.724;11.284;2023-02-13T01:33:43;103693.31;;;11.76
67509;BMP280;54354;44.724;11.284;2023-02-13T01:36:10;103692.06;;;11.58
67509;BMP280;54354;44.724;11.284;2023-02-13T01:38:37;103694.41;;;11.47
67509;BMP280;54354;44.724;11.284;2023-02-13T01:41:03;103696.78;;;11.36
67509;BMP280;54354;44.724;11.284;2023-02-13T01:43:53;103699.31;;;11.33
67509;BMP280;54354;44.724;11.284;2023-02-13T01:46:36;103689.50;;;11.21
67509;BMP280;54354;44.724;11.284;2023-02-13T01:49:23;103677.63;;;11.31
67509;BMP280;54354;44.724;11.284;2023-02-13T01:51:52;103680.50;;;11.26
67509;BMP280;54354;44.724;11.284;2023-02-13T01:54:22;103694.44;;;11.23
67509;BMP280;54354;44.724;11.284;2023-02-13T01:57:08;103702.97;;;11.16
67509;BMP280;54354;44.724;11.284;2023-02-13T01:59:43;103697.91;;;10.99
67509;BMP280;54354;44.724;11.284;2023-02-13T02:02:11;103696.47;;;10.89
67509;BMP280;54354;44.724;11.284;2023-02-13T02:04:38;103682.53;;;10.68
67509;BMP280;54354;44.724;11.284;2023-02-13T02:07:25;103685.84;;;10.64
67509;BMP280;54354;44.724;11.284;2023-02-13T02:09:55;103693.47;;;10.66
67509;BMP280;54354;44.724;11.284;2023-02-13T02:14:57;103694.88;;;10.63
67509;BMP280;54354;44.724;11.284;2023-02-13T02:17:24;103700.41;;;10.58
67509;BMP280;54354;44.724;11.284;2023-02-13T02:23:22;103682.06;;;10.53
67509;BMP280;54354;44.724;11.284;2023-02-13T02:46:04;103686.63;;;10.20
67509;BMP280;54354;44.724;11.284;2023-02-13T02:54:33;103678.78;;;10.11
67509;BMP280;54354;44.724;11.284;2023-02-13T02:57:23;103694.97;;;10.09
67509;BMP280;54354;44.724;11.284;2023-02-13T03:00:13;103698.72;;;10.08
67509;BMP280;54354;44.724;11.284;2023-02-13T03:02:58;103699.16;;;9.98
67509;BMP280;54354;44.724;11.284;2023-02-13T03:05:45;103689.91;;;9.83
67509;BMP280;54354;44.724;11.284;2023-02-13T03:08:30;103695.44;;;9.91
67509;BMP280;54354;44.724;11.284;2023-02-13T03:11:13;103706.63;;;9.96
67509;BMP280;54354;44.724;11.284;2023-02-13T03:14:00;103698.69;;;9.96
67509;BMP280;54354;44.724;11.284;2023-02-13T03:16:27;103695.50;;;10.03
67509;BMP280;54354;44.724;11.284;2023-02-13T03:19:16;103689.09;;;10.04
67509;BMP280;54354;44.724;11.284;2023-02-13T03:22:16;103682.72;;;10.05
67509;BMP280;54354;44.724;11.284;2023-02-13T03:30:29;103704.75;;;9.97
67509;BMP280;54354;44.724;11.284;2023-02-13T03:35:40;103697.91;;;9.75
67509;BMP280;54354;44.724;11.284;2023-02-13T03:38:35;103703.44;;;9.82
67509;BMP280;54354;44.724;11.284;2023-02-13T03:41:12;103701.97;;;9.72
67509;BMP280;54354;44.724;11.284;2023-02-13T03:46:19;103707.50;;;9.58
67509;BMP280;54354;44.724;11.284;2023-02-13T03:48:46;103689.50;;;9.52
67509;BMP280;54354;44.724;11.284;2023-02-13T03:54:11;103699.81;;;9.53
67509;BMP280;54354;44.724;11.284;2023-02-13T03:56:41;103712.22;;;9.53
67509;BMP280;54354;44.724;11.284;2023-02-13T03:59:29;103714.16;;;9.44
67509;BMP280;54354;44.724;11.284;2023-02-13T04:02:09;103712.88;;;9.92
67509;BMP280;54354;44.724;11.284;2023-02-13T04:04:49;103715.31;;;9.55
67509;BMP280;54354;44.724;11.284;2023-02-13T04:07:17;103714.16;;;9.44
67509;BMP280;54354;44.724;11.284;2023-02-13T04:10:06;103723.22;;;9.34
67509;BMP280;54354;44.724;11.284;2023-02-13T04:17:55;103717.38;;;9.20
67509;BMP280;54354;44.724;11.284;2023-02-13T04:20:26;103715.34;;;9.25
67509;BMP280;54354;44.724;11.284;2023-02-13T04:22:52;103721.47;;;9.38
67509;BMP280;54354;44.724;11.284;2023-02-13T04:25:18;103723.03;;;9.39
67509;BMP280;54354;44.724;11.284;2023-02-13T04:27:44;103730.97;;;9.39
67509;BMP280;54354;44.724;11.284;2023-02-13T04:30:10;103729.94;;;9.31
67509;BMP280;54354;44.724;11.284;2023-02-13T04:32:36;103738.22;;;9.21
67509;BMP280;54354;44.724;11.284;2023-02-13T04:35:02;103725.81;;;9.13
67509;BMP280;54354;44.724;11.284;2023-02-13T04:37:27;103725.03;;;9.12
67509;BMP280;54354;44.724;11.284;2023-02-13T04:39:53;103726.41;;;9.19
67509;BMP280;54354;44.724;11.284;2023-02-13T04:42:18;103724.38;;;9.24
67509;BMP280;54354;44.724;11.284;2023-02-13T04:44:44;103723.28;;;9.25
67509;BMP280;54354;44.724;11.284;2023-02-13T04:47:09;103713.28;;;9.31
67509;BMP280;54354;44.724;11.284;2023-02-13T04:49:35;103715.41;;;9.37
67509;BMP280;54354;44.724;11.284;2023-02-13T04:52:00;103736.22;;;9.48
67509;BMP280;54354;44.724;11.284;2023-02-13T04:54:26;103744.94;;;9.48
67509;BMP280;54354;44.724;11.284;2023-02-13T04:56:51;103742.47;;;9.43
67509;BMP280;54354;44.724;11.284;2023-02-13T04:59:17;103726.22;;;9.32
67509;BMP280;54354;44.724;11.284;2023-02-13T05:01:42;103732.13;;;9.29
67509;BMP280;54354;44.724;11.284;2023-02-13T05:04:08;103734.78;;;9.29
67509;BMP280;54354;44.724;11.284;2023-02-13T05:06:35;103734.59;;;9.34
67509;BMP280;54354;44.724;11.284;2023-02-13T05:09:02;103736.88;;;9.45
67509;BMP280;54354;44.724;11.284;2023-02-13T05:11:27;103735.59;;;9.51
67509;BMP280;54354;44.724;11.284;2023-02-13T05:13:53;103735.91;;;9.49
67509;BMP280;54354;44.724;11.284;2023-02-13T05:16:18;103731.44;;;9.41
67509;BMP280;54354;44.724;11.284;2023-02-13T05:18:44;103729.16;;;9.31
67509;BMP280;54354;44.724;11.284;2023-02-13T05:21:09;103732.47;;;9.19
67509;BMP280;54354;44.724;11.284;2023-02-13T05:23:54;103744.94;;;9.10
67509;BMP280;54354;44.724;11.284;2023-02-13T05:26:19;103739.88;;;8.96
67509;BMP280;54354;44.724;11.284;2023-02-13T05:28:45;103733.97;;;8.91
67509;BMP280;54354;44.724;11.284;2023-02-13T05:31:29;103729.63;;;8.95
67509;BMP280;54354;44.724;11.284;2023-02-13T05:33:54;103730.66;;;9.02
67509;BMP280;54354;44.724;11.284;2023-02-13T05:36:20;103732.50;;;9.10
67509;BMP280;54354;44.724;11.284;2023-02-13T05:38:45;103735.00;;;9.16
67509;BMP280;54354;44.724;11.284;2023-02-13T05:41:11;103729.69;;;9.16
67509;BMP280;54354;44.724;11.284;2023-02-13T05:43:37;103744.34;;;9.04
67509;BMP280;54354;44.724;11.284;2023-02-13T05:46:04;103739.09;;;8.96
67509;BMP280;54354;44.724;11.284;2023-02-13T05:48:31;103738.34;;;8.86
67509;BMP280;54354;44.724;11.284;2023-02-13T05:50:56;103745.19;;;8.79
67509;BMP280;54354;44.724;11.284;2023-02-13T05:53:22;103737.13;;;8.75
67509;BMP280;54354;44.724;11.284;2023-02-13T05:55:47;103728.91;;;8.77
67509;BMP280;54354;44.724;11.284;2023-02-13T05:58:15;103746.91;;;8.83
67509;BMP280;54354;44.724;11.284;2023-02-13T06:00:40;103735.06;;;8.90
67509;BMP280;54354;44.724;11.284;2023-02-13T06:03:06;103731.78;;;8.93
67509;BMP280;54354;44.724;11.284;2023-02-13T06:05:31;103733.97;;;8.91
67509;BMP280;54354;44.724;11.284;2023-02-13T06:07:57;103734.16;;;8.85
67509;BMP280;54354;44.724;11.284;2023-02-13T06:10:22;103752.19;;;8.83
67509;BMP280;54354;44.724;11.284;2023-02-13T06:12:48;103754.19;;;8.78
67509;BMP280;54354;44.724;11.284;2023-02-13T06:15:13;103745.22;;;8.70
67509;BMP280;54354;44.724;11.284;2023-02-13T06:17:39;103743.97;;;8.76
67509;BMP280;54354;44.724;11.284;2023-02-13T06:20:05;103748.28;;;8.81
67509;BMP280;54354;44.724;11.284;2023-02-13T06:22:31;103749.06;;;8.81
67509;BMP280;54354;44.724;11.284;2023-02-13T06:24:57;103745.81;;;8.84
67509;BMP280;54354;44.724;11.284;2023-02-13T06:27:24;103753.25;;;8.91
67509;BMP280;54354;44.724;11.284;2023-02-13T06:29:49;103752.59;;;9.03
67509;BMP280;54354;44.724;11.284;2023-02-13T06:32:15;103755.84;;;9.08
67509;BMP280;54354;44.724;11.284;2023-02-13T06:34:40;103770.28;;;9.11
67509;BMP280;54354;44.724;11.284;2023-02-13T06:37:06;103773.41;;;9.13
67509;BMP280;54354;44.724;11.284;2023-02-13T06:39:31;103765.81;;;9.11
67509;BMP280;54354;44.724;11.284;2023-02-13T06:41:57;103775.00;;;9.05
67509;BMP280;54354;44.724;11.284;2023-02-13T06:44:22;103785.25;;;8.98
67509;BMP280;54354;44.724;11.284;2023-02-13T06:46:48;103774.56;;;8.95
67509;BMP280;54354;44.724;11.284;2023-02-13T06:49:13;103792.72;;;8.96
67509;BMP280;54354;44.724;11.284;2023-02-13T06:51:39;103787.44;;;9.05
67509;BMP280;54354;44.724;11.284;2023-02-13T06:54:04;103787.88;;;9.16
67509;BMP280;54354;44.724;11.284;2023-02-13T06:56:30;103783.31;;;9.25
67509;BMP280;54354;44.724;11.284;2023-02-13T06:58:57;103788.88;;;9.32
67509;BMP280;54354;44.724;11.284;2023-02-13T07:01:22;103799.75;;;9.39
67509;BMP280;54354;44.724;11.284;2023-02-13T07:03:48;103801.91;;;9.46
67509;BMP280;54354;44.724;11.284;2023-02-13T07:06:20;103790.69;;;9.49
67509;BMP280;54354;44.724;11.284;2023-02-13T07:08:46;103780.53;;;9.59
67509;BMP280;54354;44.724;11.284;2023-02-13T07:11:20;103780.31;;;9.64
67509;BMP280;54354;44.724;11.284;2023-02-13T07:13:47;103801.91;;;9.75
67509;BMP280;54354;44.724;11.284;2023-02-13T07:16:13;103801.41;;;9.82
67509;BMP280;54354;44.724;11.284;2023-02-13T07:18:39;103798.44;;;9.83
67509;BMP280;54354;44.724;11.284;2023-02-13T07:21:04;103788.88;;;9.91
67509;BMP280;54354;44.724;11.284;2023-02-13T07:23:30;103796.00;;;9.99
67509;BMP280;54354;44.724;11.284;2023-02-13T07:25:58;103811.88;;;9.99
67509;BMP280;54354;44.724;11.284;2023-02-13T07:28:24;103812.16;;;10.06
67509;BMP280;54354;44.724;11.284;2023-02-13T07:30:49;103799.19;;;10.13
67509;BMP280;54354;44.724;11.284;2023-02-13T07:33:15;103793.50;;;10.24
67509;BMP280;54354;44.724;11.284;2023-02-13T07:35:48;103793.16;;;10.25
67509;BMP280;54354;44.724;11.284;2023-02-13T07:38:14;103804.34;;;10.31
67509;BMP280;54354;44.724;11.284;2023-02-13T07:40:40;103815.19;;;10.38
67509;BMP280;54354;44.724;11.284;2023-02-13T07:43:05;103800.31;;;10.46
67509;BMP280;54354;44.724;11.284;2023-02-13T07:45:31;103795.25;;;10.53
67509;BMP280;54354;44.724;11.284;2023-02-13T07:47:57;103801.25;;;10.62
67509;BMP280;54354;44.724;11.284;2023-02-13T07:50:22;103813.97;;;10.69
67509;BMP280;54354;44.724;11.284;2023-02-13T07:52:55;103805.06;;;10.73
67509;BMP280;54354;44.724;11.284;2023-02-13T07:55:21;103809.13;;;10.83
67509;BMP280;54354;44.724;11.284;2023-02-13T07:57:47;103807.84;;;10.89
67509;BMP280;54354;44.724;11.284;2023-02-13T08:00:13;103805.75;;;10.95
67509;BMP280;54354;44.724;11.284;2023-02-13T08:02:39;103806.88;;;11.06
67509;BMP280;54354;44.724;11.284;2023-02-13T08:05:05;103810.88;;;11.12
67509;BMP280;54354;44.724;11.284;2023-02-13T08:07:31;103816.72;;;11.18
67509;BMP280;54354;44.724;11.284;2023-02-13T08:09:56;103816.63;;;11.26
67509;BMP280;54354;44.724;11.284;2023-02-13T08:12:40;103807.44;;;11.36
67509;BMP280;54354;44.724;11.284;2023-02-13T08:15:08;103810.97;;;11.40
67509;BMP280;54354;44.724;11.284;2023-02-13T08:17:33;103822.13;;;11.46
67509;BMP280;54354;44.724;11.284;2023-02-13T08:19:59;103819.94;;;11.48
67509;BMP280;54354;44.724;11.284;2023-02-13T08:22:25;103815.84;;;11.50
67509;BMP280;54354;44.724;11.284;2023-02-13T08:24:50;103812.94;;;11.55
67509;BMP280;54354;44.724;11.284;2023-02-13T08:27:16;103815.72;;;11.59
67509;BMP280;54354;44.724;11.284;2023-02-13T08:29:41;103812.81;;;11.64
67509;BMP280;54354;44.724;11.284;2023-02-13T08:32:07;103814.59;;;11.72
67509;BMP280;54354;44.724;11.284;2023-02-13T08:34:33;103804.09;;;11.76
67509;BMP280;54354;44.724;11.284;2023-02-13T08:36:58;103798.19;;;11.82
67509;BMP280;54354;44.724;11.284;2023-02-13T08:39:23;103805.28;;;11.90
67509;BMP280;54354;44.724;11.284;2023-02-13T08:41:49;103813.44;;;11.98
67509;BMP280;54354;44.724;11.284;2023-02-13T08:44:15;103811.66;;;12.02
67509;BMP280;54354;44.724;11.284;2023-02-13T08:46:40;103807.63;;;12.08
67509;BMP280;54354;44.724;11.284;2023-02-13T08:49:06;103804.84;;;12.16
67509;BMP280;54354;44.724;11.284;2023-02-13T08:51:31;103808.13;;;12.26
67509;BMP280;54354;44.724;11.284;2023-02-13T08:53:57;103802.59;;;12.31
67509;BMP280;54354;44.724;11.284;2023-02-13T08:56:23;103800.09;;;12.38
67509;BMP280;54354;44.724;11.284;2023-02-13T08:58:48;103802.16;;;12.44
67509;BMP280;54354;44.724;11.284;2023-02-13T09:01:14;103808.78;;;12.51
67509;BMP280;54354;44.724;11.284;2023-02-13T09:03:40;103805.44;;;12.54
67509;BMP280;54354;44.724;11.284;2023-02-13T09:06:05;103813.50;;;12.57
67509;BMP280;54354;44.724;11.284;2023-02-13T09:08:31;103805.72;;;12.64
67509;BMP280;54354;44.724;11.284;2023-02-13T09:10:58;103803.91;;;12.68
67509;BMP280;54354;44.724;11.284;2023-02-13T09:13:28;103810.16;;;12.76
67509;BMP280;54354;44.724;11.284;2023-02-13T09:16:07;103809.50;;;12.79
67509;BMP280;54354;44.724;11.284;2023-02-13T09:18:34;103810.28;;;12.95
67509;BMP280;54354;44.724;11.284;2023-02-13T09:21:07;103797.13;;;13.03
67509;BMP280;54354;44.724;11.284;2023-02-13T09:23:36;103806.81;;;13.11
67509;BMP280;54354;44.724;11.284;2023-02-13T09:26:03;103804.31;;;13.18
67509;BMP280;54354;44.724;11.284;2023-02-13T09:28:30;103820.13;;;13.27
67509;BMP280;54354;44.724;11.284;2023-02-13T09:30:56;103807.72;;;13.34
67509;BMP280;54354;44.724;11.284;2023-02-13T09:33:22;103810.56;;;13.41
67509;BMP280;54354;44.724;11.284;2023-02-13T09:35:47;103811.81;;;13.47
67509;BMP280;54354;44.724;11.284;2023-02-13T09:38:13;103813.88;;;13.54
67509;BMP280;54354;44.724;11.284;2023-02-13T09:40:54;103818.56;;;13.61
67509;BMP280;54354;44.724;11.284;2023-02-13T09:43:36;103820.88;;;13.62
67509;BMP280;54354;44.724;11.284;2023-02-13T09:46:19;103803.84;;;13.67
67509;BMP280;54354;44.724;11.284;2023-02-13T09:48:48;103813.59;;;13.78
67509;BMP280;54354;44.724;11.284;2023-02-13T09:51:17;103815.97;;;13.84
67509;BMP280;54354;44.724;11.284;2023-02-13T09:53:56;103809.69;;;13.92
67509;BMP280;54354;44.724;11.284;2023-02-13T09:59:35;103815.63;;;14.04
67509;BMP280;54354;44.724;11.284;2023-02-13T10:18:46;103816.75;;;14.46
67509;BMP280;54354;44.724;11.284;2023-02-13T10:21:13;103807.31;;;14.52
67509;BMP280;54354;44.724;11.284;2023-02-13T10:23:43;103796.66;;;14.52
67509;BMP280;54354;44.724;11.284;2023-02-13T10:26:21;103797.47;;;14.56
67509;BMP280;54354;44.724;11.284;2023-02-13T10:29:02;103801.81;;;14.64
67509;BMP280;54354;44.724;11.284;2023-02-13T10:31:49;103803.38;;;14.69
67509;BMP280;54354;44.724;11.284;2023-02-13T10:34:16;103792.72;;;14.69
67509;BMP280;54354;44.724;11.284;2023-02-13T10:36:46;103795.06;;;14.74
67509;BMP280;54354;44.724;11.284;2023-02-13T10:39:32;103802.88;;;14.86
67509;BMP280;54354;44.724;11.284;2023-02-13T10:42:04;103804.09;;;14.89
67509;BMP280;54354;44.724;11.284;2023-02-13T10:47:28;103788.25;;;15.03
67509;BMP280;54354;44.724;11.284;2023-02-13T10:58:03;103769.03;;;15.20
67509;BMP280;54354;44.724;11.284;2023-02-13T11:00:48;103775.25;;;15.28
67509;BMP280;54354;44.724;11.284;2023-02-13T11:03:23;103773.78;;;15.34
67509;BMP280;54354;44.724;11.284;2023-02-13T11:05:50;103770.44;;;15.40
67509;BMP280;54354;44.724;11.284;2023-02-13T11:08:22;103760.13;;;15.43
67509;BMP280;54354;44.724;11.284;2023-02-13T11:10:49;103762.13;;;15.49
67509;BMP280;54354;44.724;11.284;2023-02-13T11:13:19;103759.53;;;15.53
67509;BMP280;54354;44.724;11.284;2023-02-13T11:15:57;103753.88;;;15.61
67509;BMP280;54354;44.724;11.284;2023-02-13T11:18:24;103748.19;;;15.63
67509;BMP280;54354;44.724;11.284;2023-02-13T11:20:59;103752.78;;;15.66
67509;BMP280;54354;44.724;11.284;2023-02-13T11:26:00;103744.47;;;15.75
67509;BMP280;54354;44.724;11.284;2023-02-13T11:28:31;103739.56;;;15.80
67509;BMP280;54354;44.724;11.284;2023-02-13T11:33:34;103737.38;;;15.93
67509;BMP280;54354;44.724;11.284;2023-02-13T11:36:15;103733.56;;;15.94
67509;BMP280;54354;44.724;11.284;2023-02-13T11:38:40;103732.88;;;16.01
67509;BMP280;54354;44.724;11.284;2023-02-13T11:41:11;103724.88;;;16.01
67509;BMP280;54354;44.724;11.284;2023-02-13T11:43:47;103724.50;;;16.06
67509;BMP280;54354;44.724;11.284;2023-02-13T11:46:24;103720.34;;;16.12
67509;BMP280;54354;44.724;11.284;2023-02-13T11:49:03;103719.66;;;16.18
67509;BMP280;54354;44.724;11.284;2023-02-13T11:51:47;103721.22;;;16.23
67509;BMP280;54354;44.724;11.284;2023-02-13T11:54:32;103708.69;;;16.34
67509;BMP280;54354;44.724;11.284;2023-02-13T11:57:01;103702.16;;;16.32
67509;BMP280;54354;44.724;11.284;2023-02-13T11:59:32;103703.34;;;16.38
67509;BMP280;54354;44.724;11.284;2023-02-13T12:04:28;103702.28;;;16.53
67509;BMP280;54354;44.724;11.284;2023-02-13T12:07:14;103690.50;;;16.61
67509;BMP280;54354;44.724;11.284;2023-02-13T12:09:40;103692.00;;;16.62
67509;BMP280;54354;44.724;11.284;2023-02-13T12:12:13;103697.00;;;16.64
67509;BMP280;54354;44.724;11.284;2023-02-13T12:14:44;103689.38;;;16.69
67509;BMP280;54354;44.724;11.284;2023-02-13T12:17:43;103690.69;;;17.15
67509;BMP280;54354;44.724;11.284;2023-02-13T12:20:02;103689.09;;;16.92
67509;BMP280;54354;44.724;11.284;2023-02-13T12:22:51;103685.25;;;16.90
67509;BMP280;54354;44.724;11.284;2023-02-13T12:25:34;103679.88;;;16.86
67509;BMP280;54354;44.724;11.284;2023-02-13T12:42:27;103650.91;;;17.17
67509;BMP280;54354;44.724;11.284;2023-02-13T12:45:04;103648.59;;;17.15
67509;BMP280;54354;44.724;11.284;2023-02-13T12:53:38;103639.81;;;17.40
67509;BMP280;54354;44.724;11.284;2023-02-13T13:07:29;103606.13;;;17.60
67509;BMP280;54354;44.724;11.284;2023-02-13T13:09:58;103608.06;;;17.63
67509;BMP280;54354;44.724;11.284;2023-02-13T13:12:42;103606.91;;;17.60
67509;BMP280;54354;44.724;11.284;2023-02-13T13:21:21;103608.03;;;17.77
67509;BMP280;54354;44.724;11.284;2023-02-13T13:24:23;103602.31;;;17.82
67509;BMP280;54354;44.724;11.284;2023-02-13T13:26:48;103596.16;;;17.85
67509;BMP280;54354;44.724;11.284;2023-02-13T13:29:24;103591.91;;;17.84
67509;BMP280;54354;44.724;11.284;2023-02-13T13:31:55;103600.38;;;17.86
67509;BMP280;54354;44.724;11.284;2023-02-13T13:34:24;103597.28;;;17.92
67509;BMP280;54354;44.724;11.284;2023-02-13T13:39:30;103597.66;;;17.97
67509;BMP280;54354;44.724;11.284;2023-02-13T13:45:04;103596.09;;;18.03
67509;BMP280;54354;44.724;11.284;2023-02-13T13:50:23;103592.66;;;18.06
67509;BMP280;54354;44.724;11.284;2023-02-13T13:53:15;103596.81;;;18.14
67509;BMP280;54354;44.724;11.284;2023-02-13T13:58:24;103594.53;;;18.17
67509;BMP280;54354;44.724;11.284;2023-02-13T14:03:58;103600.25;;;18.19
67509;BMP280;54354;44.724;11.284;2023-02-13T14:06:26;103596.03;;;18.17
67509;BMP280;54354;44.724;11.284;2023-02-13T14:09:03;103596.78;;;18.22
67509;BMP280;54354;44.724;11.284;2023-02-13T14:11:37;103598.72;;;18.25
67509;BMP280;54354;44.724;11.284;2023-02-13T14:16:58;103591.81;;;18.31
67509;BMP280;54354;44.724;11.284;2023-02-13T14:19:37;103587.16;;;18.35
67509;BMP280;54354;44.724;11.284;2023-02-13T14:24:56;103579.88;;;18.35
67509;BMP280;54354;44.724;11.284;2023-02-13T14:27:26;103585.25;;;18.35
67509;BMP280;54354;44.724;11.284;2023-02-13T14:29:53;103590.56;;;18.42
67509;BMP280;54354;44.724;11.284;2023-02-13T14:32:30;103577.94;;;18.39
67509;BMP280;54354;44.724;11.284;2023-02-13T14:34:59;103579.88;;;18.39
67509;BMP280;54354;44.724;11.284;2023-02-13T14:37:34;103576.78;;;18.40
67509;BMP280;54354;44.724;11.284;2023-02-13T14:42:53;103567.22;;;18.39
67509;BMP280;54354;44.724;11.284;2023-02-13T14:45:32;103563.78;;;18.35
67509;BMP280;54354;44.724;11.284;2023-02-13T14:48:12;103563.78;;;18.39
67509;BMP280;54354;44.724;11.284;2023-02-13T14:50:53;103563.38;;;18.37
67509;BMP280;54354;44.724;11.284;2023-02-13T14:53:30;103557.63;;;18.38
67509;BMP280;54354;44.724;11.284;2023-02-13T14:56:10;103557.25;;;18.36
67509;BMP280;54354;44.724;11.284;2023-02-13T15:03:56;103557.66;;;18.31
67509;BMP280;54354;44.724;11.284;2023-02-13T15:06:38;103556.84;;;18.38
67509;BMP280;54354;44.724;11.284;2023-02-13T15:09:31;103549.56;;;18.38
67509;BMP280;54354;44.724;11.284;2023-02-13T15:11:58;103552.25;;;18.38
67509;BMP280;54354;44.724;11.284;2023-02-13T15:14:34;103546.91;;;18.31
67509;BMP280;54354;44.724;11.284;2023-02-13T15:17:17;103545.75;;;18.32
67509;BMP280;54354;44.724;11.284;2023-02-13T15:19:46;103551.13;;;18.32
67509;BMP280;54354;44.724;11.284;2023-02-13T15:22:34;103536.16;;;18.42
67509;BMP280;54354;44.724;11.284;2023-02-13T15:25:00;103546.13;;;18.38
67509;BMP280;54354;44.724;11.284;2023-02-13T15:27:28;103542.69;;;18.34
67509;BMP280;54354;44.724;11.284;2023-02-13T15:30:13;103540.03;;;18.34
67509;BMP280;54354;44.724;11.284;2023-02-13T15:32:40;103537.72;;;18.36
67509;BMP280;54354;44.724;11.284;2023-02-13T15:35:21;103545.34;;;18.37
67509;BMP280;54354;44.724;11.284;2023-02-13T15:37:49;103535.06;;;18.36
67509;BMP280;54354;44.724;11.284;2023-02-13T15:40:18;103542.66;;;18.37
67509;BMP280;54354;44.724;11.284;2023-02-13T15:42:46;103542.31;;;18.35
67509;BMP280;54354;44.724;11.284;2023-02-13T15:45:17;103548.06;;;18.27
67509;BMP280;54354;44.724;11.284;2023-02-13T15:47:44;103548.50;;;18.25
67509;BMP280;54354;44.724;11.284;2023-02-13T15:50:21;103547.34;;;18.26
67509;BMP280;54354;44.724;11.284;2023-02-13T15:52:49;103538.91;;;18.28
67509;BMP280;54354;44.724;11.284;2023-02-13T15:55:22;103551.19;;;18.25
67509;BMP280;54354;44.724;11.284;2023-02-13T15:57:49;103546.94;;;18.28
67509;BMP280;54354;44.724;11.284;2023-02-13T16:00:25;103546.19;;;18.24
67509;BMP280;54354;44.724;11.284;2023-02-13T16:02:52;103536.25;;;18.24
67509;BMP280;54354;44.724;11.284;2023-02-13T16:05:19;103540.06;;;18.23
67509;BMP280;54354;44.724;11.284;2023-02-13T16:07:50;103540.44;;;18.22
67509;BMP280;54354;44.724;11.284;2023-02-13T16:10:33;103534.66;;;18.27
67509;BMP280;54354;44.724;11.284;2023-02-13T16:13:04;103543.16;;;18.18
67509;BMP280;54354;44.724;11.284;2023-02-13T16:15:31;103539.34;;;18.15
67509;BMP280;54354;44.724;11.284;2023-02-13T16:17:58;103546.25;;;18.13
67509;BMP280;54354;44.724;11.284;2023-02-13T16:20:26;103546.28;;;18.06
67509;BMP280;54354;44.724;11.284;2023-02-13T16:25:38;103550.50;;;18.00
67509;BMP280;54354;44.724;11.284;2023-02-13T16:28:23;103547.09;;;17.96
67509;BMP280;54354;44.724;11.284;2023-02-13T16:31:00;103551.72;;;17.92
67509;BMP280;54354;44.724;11.284;2023-02-13T16:33:33;103559.38;;;17.86
67509;BMP280;54354;44.724;11.284;2023-02-13T16:36:17;103549.81;;;17.81
67509;BMP280;54354;44.724;11.284;2023-02-13T16:38:43;103555.59;;;17.76
67509;BMP280;54354;44.724;11.284;2023-02-13T16:43:50;103545.66;;;17.59
67509;BMP280;54354;44.724;11.284;2023-02-13T16:46:21;103549.47;;;17.51
67509;BMP280;54354;44.724;11.284;2023-02-13T16:51:12;103547.56;;;17.55